createdAt,value
2023-11-19T00:04:50.927Z,10.20
2023-11-19T00:10:32.786Z,10.30
2023-11-19T00:16:12.866Z,10.40
2023-11-19T00:21:53.049Z,10.50
2023-11-19T00:27:34.829Z,10.60
2023-11-19T00:33:14.928Z,10.70
2023-11-19T00:38:55.284Z,10.80
2023-11-19T00:44:36.920Z,11.00
2023-11-19T00:50:16.911Z,11.20
2023-11-19T00:55:57.476Z,11.30
2023-11-19T01:01:39.336Z,11.50
2023-11-19T01:07:19.221Z,11.70
2023-11-19T01:12:59.063Z,11.90
2023-11-19T01:18:40.890Z,12.10
2023-11-19T01:24:21.737Z,12.20
2023-11-19T01:30:02.123Z,12.30
2023-11-19T01:35:43.899Z,12.50
2023-11-19T01:41:23.919Z,12.60
2023-11-19T01:47:04.697Z,12.80
2023-11-19T01:52:46.993Z,12.90
2023-11-19T01:58:27.282Z,13.00
2023-11-19T02:04:08.433Z,13.10
2023-11-19T02:09:50.184Z,13.20
2023-11-19T02:15:30.219Z,13.20
2023-11-19T02:21:10.580Z,13.30
2023-11-19T02:27:02.296Z,13.40
2023-11-19T02:32:44.236Z,13.50
2023-11-19T02:38:24.109Z,13.70
2023-11-19T02:44:04.829Z,13.70
2023-11-19T02:49:46.530Z,13.80
2023-11-19T02:55:26.890Z,13.80
2023-11-19T03:01:07.206Z,13.90
2023-11-19T03:06:48.525Z,13.90
2023-11-19T03:12:28.499Z,13.90
2023-11-19T03:18:09.188Z,13.90
2023-11-19T03:23:50.848Z,13.90
2023-11-19T03:29:30.909Z,13.90
2023-11-19T03:35:11.124Z,13.90
2023-11-19T03:40:53.059Z,13.90
2023-11-19T03:46:33.426Z,14.00
2023-11-19T03:52:20.362Z,14.00
2023-11-19T03:58:02.796Z,14.00
2023-11-19T04:09:26.774Z,14.00
2023-11-19T04:15:09.879Z,14.10
2023-11-19T04:20:52.474Z,14.10
2023-11-19T04:26:36.259Z,14.10
2023-11-19T04:32:23.103Z,14.10
2023-11-19T04:38:06.461Z,14.00
2023-11-19T04:43:49.242Z,14.10
2023-11-19T04:49:35.056Z,14.10
2023-11-19T04:55:20.436Z,14.10
2023-11-19T05:01:07.727Z,14.10
2023-11-19T05:06:53.101Z,14.10
2023-11-19T05:12:39.021Z,14.10
2023-11-19T05:18:23.759Z,14.10
2023-11-19T05:24:06.361Z,14.10
2023-11-19T05:29:46.336Z,14.10
2023-11-19T05:35:26.604Z,14.10
2023-11-19T05:41:08.574Z,14.00
2023-11-19T05:46:49.340Z,14.00
2023-11-19T05:52:29.749Z,14.00
2023-11-19T05:58:11.600Z,14.00
2023-11-19T06:03:51.921Z,13.90
2023-11-19T06:09:32.212Z,13.90
2023-11-19T06:15:13.918Z,13.80
2023-11-19T06:20:54.110Z,13.80
2023-11-19T06:26:34.204Z,13.80
2023-11-19T06:32:15.998Z,13.80
2023-11-19T06:37:56.151Z,13.80
2023-11-19T06:49:24.017Z,13.70
2023-11-19T06:55:09.131Z,13.70
2023-11-19T07:00:49.639Z,13.70
2023-11-19T07:06:35.112Z,13.70
2023-11-19T07:12:15.945Z,13.70
2023-11-19T07:23:41.278Z,13.70
2023-11-19T07:35:05.975Z,13.70
2023-11-19T07:46:30.309Z,13.70
2023-11-19T07:57:55.130Z,13.80
2023-11-19T08:03:35.414Z,13.80
2023-11-19T08:09:15.971Z,13.80
2023-11-19T08:14:57.464Z,13.80
2023-11-19T08:20:37.563Z,13.90
2023-11-19T08:26:20.391Z,14.00
2023-11-19T08:32:03.717Z,14.30
2023-11-19T08:37:43.730Z,14.50
2023-11-19T08:43:25.037Z,14.60
2023-11-19T08:49:07.587Z,14.60
2023-11-19T08:54:47.700Z,14.50
2023-11-19T09:00:28.170Z,14.50
2023-11-19T09:06:10.116Z,14.50
2023-11-19T09:11:50.275Z,14.40
2023-11-19T09:17:31.028Z,14.40
2023-11-19T09:23:12.482Z,14.30
2023-11-19T09:28:52.605Z,14.30
2023-11-19T09:34:32.535Z,14.30
2023-11-19T09:40:14.750Z,14.40
2023-11-19T09:45:57.326Z,14.40
2023-11-19T09:51:38.061Z,14.50
2023-11-19T09:57:20.272Z,14.50
2023-11-19T10:03:01.456Z,14.60
2023-11-19T10:08:42.694Z,14.80
2023-11-19T10:14:25.162Z,15.20
2023-11-19T10:20:06.644Z,15.60
2023-11-19T10:25:46.665Z,15.80
2023-11-19T10:31:28.548Z,16.10
2023-11-19T10:37:08.978Z,16.20
2023-11-19T10:42:49.198Z,16.40
2023-11-19T10:48:30.547Z,16.60
2023-11-19T10:54:12.097Z,16.70
2023-11-19T10:59:56.816Z,16.60
2023-11-19T11:05:40.150Z,16.40
2023-11-19T11:11:21.868Z,16.30
2023-11-19T11:17:04.313Z,16.30
2023-11-19T11:23:08.864Z,16.40
2023-11-19T11:28:55.433Z,16.50
2023-11-19T11:34:51.338Z,16.50
2023-11-19T11:40:33.204Z,16.50
2023-11-19T11:46:46.332Z,16.30
2023-11-19T11:52:26.669Z,16.20
2023-11-19T11:58:08.282Z,16.10
2023-11-19T12:03:51.069Z,16.00
2023-11-19T12:09:31.091Z,15.90
2023-11-19T12:15:12.576Z,15.80
2023-11-19T12:20:52.777Z,15.70
2023-11-19T12:26:38.894Z,15.70
2023-11-19T12:32:21.111Z,15.60
2023-11-19T12:38:01.457Z,15.50
2023-11-19T12:49:26.372Z,15.40
2023-11-19T13:01:08.961Z,15.50
2023-11-19T13:12:33.540Z,15.80
2023-11-19T13:18:14.230Z,15.80
2023-11-19T13:23:55.961Z,15.70
2023-11-19T13:29:37.105Z,15.70
2023-11-19T13:35:18.463Z,15.60
2023-11-19T13:41:00.371Z,15.60
2023-11-19T13:46:40.538Z,15.40
2023-11-19T13:52:20.877Z,15.30
2023-11-19T13:58:02.842Z,15.20
2023-11-19T14:03:43.689Z,15.10
2023-11-19T14:09:23.949Z,15.00
2023-11-19T14:15:06.241Z,14.90
2023-11-19T14:20:46.476Z,14.90
2023-11-19T14:26:27.129Z,14.80
2023-11-19T14:32:08.605Z,14.70
2023-11-19T14:37:48.834Z,14.60
2023-11-19T14:43:29.098Z,14.50
2023-11-19T14:49:10.862Z,14.50
2023-11-19T14:54:50.862Z,14.40
2023-11-19T15:00:31.635Z,14.40
2023-11-19T15:06:13.742Z,14.40
2023-11-19T15:11:55.349Z,14.30
2023-11-19T15:17:35.691Z,14.30
2023-11-19T15:23:17.641Z,14.30
2023-11-19T15:28:57.723Z,14.30
2023-11-19T15:34:38.006Z,14.30
2023-11-19T15:40:19.814Z,14.20
2023-11-19T15:46:00.355Z,14.20
2023-11-19T15:51:40.821Z,14.00
2023-11-19T15:57:22.688Z,14.00
2023-11-19T16:03:02.854Z,13.90
2023-11-19T16:08:43.178Z,13.90
2023-11-19T16:14:25.053Z,13.80
2023-11-19T16:20:08.077Z,13.80
2023-11-19T16:25:48.593Z,13.80
2023-11-19T16:31:30.324Z,13.80
2023-11-19T16:37:10.306Z,13.70
2023-11-19T16:42:52.150Z,13.70
2023-11-19T16:48:33.951Z,13.70
2023-11-19T16:54:18.783Z,13.70
2023-11-19T16:59:59.145Z,13.70
2023-11-19T17:05:41.440Z,13.70
2023-11-19T17:11:21.877Z,13.70
2023-11-19T17:17:02.229Z,13.70
2023-11-19T17:22:44.100Z,13.70
2023-11-19T17:28:24.017Z,13.70
2023-11-19T17:34:04.995Z,13.70
2023-11-19T17:39:46.935Z,13.70
2023-11-19T17:45:26.956Z,13.70
2023-11-19T17:51:07.734Z,13.60
2023-11-19T17:56:49.576Z,13.60
2023-11-19T18:08:13.517Z,13.60
2023-11-19T18:13:55.356Z,13.60
2023-11-19T18:19:35.442Z,13.60
2023-11-19T18:25:16.684Z,13.60
2023-11-19T18:30:59.186Z,13.50
2023-11-19T18:36:40.047Z,13.50
2023-11-19T18:42:20.758Z,13.50
2023-11-19T18:48:02.416Z,13.50
2023-11-19T18:53:43.674Z,13.50
2023-11-19T18:59:26.222Z,13.50
2023-11-19T19:05:09.228Z,13.50
2023-11-19T19:10:49.365Z,13.50
2023-11-19T19:16:31.228Z,13.50
2023-11-19T19:22:14.358Z,13.50
2023-11-19T19:28:22.633Z,13.50
2023-11-19T19:34:00.570Z,13.40
2023-11-19T19:39:44.661Z,13.40
2023-11-19T19:45:25.914Z,13.40
2023-11-19T19:51:08.276Z,13.40
2023-11-19T19:56:54.808Z,13.50
2023-11-19T20:02:39.322Z,13.50
2023-11-19T20:08:20.324Z,13.50
2023-11-19T20:14:02.337Z,13.50
2023-11-19T20:19:42.181Z,13.50
2023-11-19T20:25:22.669Z,13.50
2023-11-19T20:31:04.682Z,13.50
2023-11-19T20:36:44.729Z,13.50
2023-11-19T20:42:24.752Z,13.40
2023-11-19T20:48:06.774Z,13.40
2023-11-19T20:53:47.202Z,13.40
2023-11-19T20:59:27.644Z,13.40
2023-11-19T21:05:17.654Z,13.40
2023-11-19T21:10:58.550Z,13.50
2023-11-19T21:16:38.793Z,13.50
2023-11-19T21:22:20.720Z,13.50
2023-11-19T21:28:00.774Z,13.50
2023-11-19T21:33:41.134Z,13.50
2023-11-19T21:39:22.796Z,13.50
2023-11-19T21:45:02.900Z,13.50
2023-11-19T21:50:43.307Z,13.50
2023-11-19T21:56:24.929Z,13.50
2023-11-19T22:02:05.311Z,13.40
2023-11-19T22:07:45.681Z,13.40
2023-11-19T22:13:27.173Z,13.40
2023-11-19T22:19:07.194Z,13.50
2023-11-19T22:24:47.290Z,13.50
2023-11-19T22:30:29.122Z,13.50
2023-11-19T22:36:09.852Z,13.60
2023-11-19T22:41:50.092Z,13.60
2023-11-19T22:47:31.640Z,13.60
2023-11-19T22:53:11.417Z,13.60
2023-11-19T22:58:51.885Z,13.50
2023-11-19T23:04:33.847Z,13.60
2023-11-19T23:10:14.035Z,13.60
2023-11-19T23:15:54.162Z,13.60
2023-11-19T23:21:35.669Z,13.60
2023-11-19T23:27:15.972Z,13.60
2023-11-19T23:32:56.468Z,13.60
2023-11-19T23:38:38.583Z,13.50
2023-11-19T23:44:18.645Z,13.50
2023-11-19T23:49:58.750Z,13.50
2023-11-19T23:55:42.840Z,13.50
